K88

Allen County Airport

Iola, Kansas, USA
METAR KK88 142155Z AUTO 35012KT 10SM CLR 08/02 A3016 RMK AO1 T00830020
Observed Flight Rules
Dec-14 @ 21:55 UTC (7 minutes ago) Visual Flight Rules
Wind Visibility Clouds
350° at 12 knots 10 miles
  • Clear skies
Temperatures Readings
Current 8°C / 46°F
Dewpoint 2°C / 36°F
Humidity 66%
Altimeter 30.16" Hg
Pressure 1021 hPa
Elevation 309
METAR KK88 142155Z AUTO 35012KT 10SM CLR 08/02 A3016 RMK AO1 T00830020
Observed Flight Rules
Dec-14 @ 21:55 UTC
(7 minutes ago)
VFR
Wind Visibility
350° at 12 knots 10 miles
Clouds
  • Clear skies
Temperature Dewpoint
8°C / 46°F 2°C / 36°F
Humidity Altimeter Pressure
66% 30.16" Hg 1021 hPa